« Back
NWS Peachtree City, Ga » Text Product » ATL Terminal Aerodrome Forecast


Printer-friendly Version
Current Version              Previous Versions:   1  2  3  4  5  6  7  8  9  

Terminal Aerodrome Forecast

155
FTUS42 KFFC 240300 AAB
TAFATL
TAF AMD
KATL 240354Z 2404/2506 25004KT P6SM SCT040 SCT100
     FM240800 23005KT P6SM SCT025
     FM241400 26007KT P6SM BKN025
     FM241600 28008G16KT 6SM -SHRA BKN035 PROB30 2416/2421 5SM TSRA
      BR BKN025CB
     FM242100 30007KT P6SM BKN035
     FM250200 29005KT P6SM BKN025=



USA.gov is the U.S. government's official web portal to all federal, state and local government web resources and services.